Flight Track Log - Related Links

Times and Time Zones

All times are in EDT time to prevent confusion due to time zone crossing. See the SWA1718 flight status page for this flight to view local times or setup timezone preferences in your user account.

Time Position Orientation Groundspeed Altitude Reporting Facility
EDT Latitude Longitude Course Direction KTS MPH feet Rate Location/Type
Mon 07:38:57 PM 39.9167 -104.6500 90° East 199 229 7,700  Level Denver TRACON
Mon 07:39:57 PM 39.9500 -104.5833 57° Northeast 243 280 10,100 1,200 Climbing Denver TRACON
Mon 07:40:57 PM 39.9500 -104.4833 90° East 297 342 10,100 100 Level Denver TRACON
Mon 07:41:57 PM 39.9500 -104.3667 90° East 302 348 10,300 1,850 Climbing Denver TRACON
Mon 07:42:57 PM 39.9333 -104.2667 102° East 305 351 13,800 2,850 Climbing Denver TRACON
Mon 07:43:57 PM 39.9000 -104.1500 110° East 347 399 16,000 2,080 Climbing Denver TRACON
Mon 07:44:00 PM 39.8833 -103.7181 90° East  Level FlightAware Approximate
Mon 07:44:12 PM 39.8997 -104.1150 91° East 366 421 16,400  Level Denver Center
Mon 07:45:13 PM 39.8800 -103.9728 100° East 398 458 19,300 2,683 Climbing Denver Center
Mon 07:46:15 PM 39.8775 -103.8078 91° East 435 501 21,900 2,371 Climbing Denver Center
Mon 07:47:17 PM 39.8931 -103.6533 82° East 437 503 24,200 2,146 Climbing Denver Center
Mon 07:48:18 PM 39.9131 -103.4803 81° East 474 545 26,300 1,902 Climbing Denver Center
Mon 07:49:20 PM 39.9325 -103.3025 82° East 492 566 28,100 1,355 Climbing Denver Center
Mon 07:50:22 PM 39.9542 -103.1158 81° East 515 593 29,100 1,122 Climbing Denver Center
Mon 07:51:23 PM 39.9758 -102.9156 82° East 551 634 30,400 1,610 Climbing Denver Center
Mon 07:52:25 PM 40.0019 -102.6761 82° East 565 650 32,400 2,177 Climbing Denver Center
Mon 07:53:27 PM 40.0228 -102.4792 82° East 560 644 34,900 1,268 Climbing Denver Center
Mon 07:54:28 PM 40.0411 -102.2967 82° East 534 615 35,000 844 Climbing Denver Center
Mon 07:55:42 PM 40.0628 -102.0856 82° East 524 603 36,800 882 Climbing Denver Center
Mon 07:56:44 PM 40.0833 -101.8769 83° East 519 597 37,000 97 Climbing Denver Center
Mon 07:57:46 PM 40.1028 -101.6750 83° East 508 585 37,000  Level Denver Center
Mon 07:58:48 PM 40.1192 -101.5006 83° East 508 585 37,000  Level Denver Center
Mon 07:59:49 PM 40.1389 -101.2969 83° East 508 585 37,000 -293 Level Denver Center
Mon 08:00:51 PM 40.1553 -101.1239 83° East 505 581 36,400 -774 Descending Denver Center
Mon 08:01:53 PM 40.1753 -100.9183 83° East 512 589 35,400 -683 Descending Denver Center
Mon 08:02:54 PM 40.1906 -100.7419 83° East 514 592 35,000 -195 Descending Denver Center
Mon 08:03:56 PM 40.2050 -100.5383 85° East 508 585 35,000  Level Denver Center
Mon 08:04:58 PM 40.2075 -100.3639 89° East 505 581 35,000  Level Denver Center
Mon 08:05:59 PM 40.2106 -100.1578 89° East 509 586 35,000  Level Denver Center
Mon 08:07:01 PM 40.2128 -99.9778 89° East 519 597 35,000  Level Denver Center
Mon 08:08:15 PM 40.2158 -99.7939 89° East 519 597 35,000  Level Denver Center
Mon 08:09:17 PM 40.2178 -99.5669 89° East 521 600 35,000  Level Denver Center
Mon 08:10:18 PM 40.2200 -99.3786 89° East 520 598 35,000  Level Denver Center
Mon 08:11:20 PM 40.2217 -99.1503 89° East 525 604 35,000  Level Denver Center
Mon 08:12:22 PM 40.2217 -98.9608 90° East 524 603 35,000  Level Denver Center
Mon 08:13:23 PM 40.2225 -98.7714 90° East 524 603 35,000  Level Denver Center
Mon 08:13:46 PM 40.2222 -98.6978 90° East 522 601 35,000  Level Minneapolis Center
Mon 08:14:48 PM 40.2225 -98.5092 90° East 520 598 35,000  Level Minneapolis Center
Mon 08:15:49 PM 40.2222 -98.3225 90° East 518 596 35,000  Level Minneapolis Center
Mon 08:16:51 PM 40.2219 -98.1350 90° East 517 595 35,000  Level Minneapolis Center
Mon 08:17:52 PM 40.2219 -97.9467 90° East 518 596 35,000  Level Minneapolis Center
Mon 08:18:54 PM 40.2203 -97.7206 90° East 520 598 35,000  Level Minneapolis Center
Mon 08:19:55 PM 40.2183 -97.5314 91° East 520 598 35,000  Level Minneapolis Center
Mon 08:20:57 PM 40.2161 -97.3433 91° East 519 597 35,000  Level Minneapolis Center
Mon 08:21:59 PM 40.2147 -97.1508 90° East 516 594 35,000  Level Minneapolis Center
Mon 08:23:00 PM 40.2119 -96.9658 91° East 513 590 35,000  Level Minneapolis Center
Mon 08:24:02 PM 40.2097 -96.7803 91° East 511 588 35,000  Level Minneapolis Center
Mon 08:25:04 PM 40.2072 -96.5964 91° East 509 586 35,000  Level Minneapolis Center
Mon 08:26:17 PM 40.2036 -96.4125 91° East 508 585 35,000  Level Minneapolis Center
Mon 08:27:19 PM 40.2047 -96.1900 90° East 510 587 35,000  Level Minneapolis Center
Mon 08:28:21 PM 40.2442 -95.9733 77° East 512 589 35,000  Level Minneapolis Center
Mon 08:29:23 PM 40.2775 -95.7850 77° East 527 606 35,000  Level Minneapolis Center
Mon 08:30:24 PM 40.3119 -95.6017 76° East 525 604 35,000  Level Minneapolis Center
Mon 08:31:26 PM 40.3450 -95.4172 77° East 523 602 35,000  Level Minneapolis Center
Mon 08:32:28 PM 40.3792 -95.2339 76° East 521 600 35,000  Level Minneapolis Center
Mon 08:33:29 PM 40.4114 -95.0508 77° East 520 598 35,000  Level Minneapolis Center
Mon 08:34:31 PM 40.4503 -94.8286 77° East 522 601 35,000  Level Minneapolis Center
Mon 08:35:33 PM 40.4828 -94.6433 77° East 522 601 35,000  Level Minneapolis Center
Mon 08:36:35 PM 40.5125 -94.4686 77° East 521 600 35,000  Level Minneapolis Center
Mon 08:37:36 PM 40.5447 -94.2839 77° East 522 601 35,000  Level Minneapolis Center
Mon 08:38:39 PM 40.5731 -94.1011 78° East 518 596 35,000  Level Minneapolis Center
Mon 08:39:41 PM 40.6067 -93.8778 79° East 520 598 35,000  Level Minneapolis Center
Mon 08:40:43 PM 40.6342 -93.6919 79° East 520 598 35,000  Level Minneapolis Center
Mon 08:41:45 PM 40.6603 -93.5072 79° East 518 596 35,000  Level Minneapolis Center
Mon 08:42:47 PM 40.6872 -93.3228 79° East 518 596 35,000  Level Minneapolis Center
Mon 08:43:49 PM 40.7139 -93.1347 79° East 520 598 35,000  Level Minneapolis Center
Mon 08:44:51 PM 40.7406 -92.9489 79° East 519 597 35,000  Level Minneapolis Center
Mon 08:45:21 PM 40.7567 -92.8353 79° East 517 595 35,000  Level Chicago Center
Mon 08:46:22 PM 40.7822 -92.6486 80° East 518 596 35,000 -341 Level Chicago Center
Mon 08:47:24 PM 40.8078 -92.4597 80° East 520 598 34,300 -774 Descending Chicago Center
Mon 08:48:26 PM 40.8328 -92.2750 80° East 516 594 33,400 -919 Descending Chicago Center
Mon 08:49:28 PM 40.8564 -92.0906 80° East 512 589 32,400 -1,016 Descending Chicago Center
Mon 08:50:30 PM 40.8864 -91.8708 80° East 510 587 31,300 -1,016 Descending Chicago Center
Mon 08:51:32 PM 40.9097 -91.6878 80° East 507 583 30,300 -927 Descending Chicago Center
Mon 08:52:33 PM 40.9333 -91.5053 80° East 507 583 29,400 -634 Descending Chicago Center
Mon 08:53:35 PM 40.9561 -91.3217 81° East 510 587 29,000 -194 Descending Chicago Center
Mon 08:54:37 PM 40.9797 -91.1319 81° East 508 585 29,000 -677 Level Chicago Center
Mon 08:55:39 PM 41.0028 -90.9461 81° East 510 587 27,600 -1,935 Descending Chicago Center
Mon 08:56:41 PM 41.0250 -90.7633 81° East 504 580 25,000 -1,790 Descending Chicago Center
Mon 08:57:43 PM 41.0456 -90.5872 81° East 489 563 23,900 -968 Descending Chicago Center
Mon 08:58:45 PM 41.0689 -90.3950 81° East 441 507 23,000 -439 Descending Chicago Center
Mon 08:59:46 PM 41.0864 -90.2394 81° East 427 491 23,000 -780 Level Chicago Center
Mon 09:00:48 PM 41.1044 -90.0858 81° East 420 483 21,400 -1,742 Descending Chicago Center
Mon 09:01:50 PM 41.1222 -89.9336 81° East 415 478 19,400 -1,790 Descending Chicago Center
Mon 09:02:52 PM 41.1392 -89.7833 81° East 409 471 17,700 -1,306 Descending Chicago Center
Mon 09:03:54 PM 41.1758 -89.6439 71° East 400 460 16,700 -968 Descending Chicago Center
Mon 09:04:56 PM 41.2142 -89.5072 70° East 395 455 15,700 -976 Descending Chicago Center
Mon 09:05:57 PM 41.2531 -89.3736 69° East 390 449 14,700 -1,073 Descending Chicago Center
Mon 09:06:59 PM 41.2983 -89.2117 70° East 388 447 13,500 -1,355 Descending Chicago Center
Mon 09:08:01 PM 41.3339 -89.0817 70° East 373 429 11,900 -1,500 Descending Chicago Center
Mon 09:09:03 PM 41.3683 -88.9564 70° East 366 421 10,400 -1,161 Descending Chicago Center
Mon 09:10:05 PM 41.4033 -88.8364 69° East 354 407 9,500 -1,065 Descending Chicago Center
Mon 09:11:07 PM 41.4339 -88.7228 70° East 333 383 8,200 -1,210 Descending Chicago Center
Mon 09:12:09 PM 41.4653 -88.6111 69° East 326 375 7,000 -1,065 Descending Chicago Center
Mon 09:13:11 PM 41.5000 -88.4844 70° East 315 362 6,000 -484 Descending Chicago Center
Mon 09:14:13 PM 41.5219 -88.3869 73° East 294 338 6,000 -97 Level Chicago Center
Mon 09:15:15 PM 41.5433 -88.2894 74° East 281 323 5,800 -390 Descending Chicago Center
Mon 09:16:16 PM 41.5517 -88.1886 84° East 275 316 5,200 -387 Descending Chicago Center
Mon 09:17:19 PM 41.5597 -88.0886 84° East 272 313 5,000 -97 Descending Chicago Center
Mon 09:18:20 PM 41.5675 -87.9886 84° East 270 311 5,000  Level Chicago Center
Mon 09:19:22 PM 41.5731 -87.8911 86° East 267 307 5,000  Level Chicago Center
Mon 09:20:24 PM 41.5806 -87.8047 83° East 250 288 5,000  Level Chicago Center
Mon 09:21:26 PM 41.5881 -87.7164 83° East 221 254 5,000 -242 Level Chicago Center
Mon 09:22:28 PM 41.5742 -87.6519 106° East 197 227 4,500 -629 Descending Chicago Center
Mon 09:23:30 PM 41.5992 -87.5992 58° Northeast 188 216 3,700 -871 Descending Chicago Center
Mon 09:24:32 PM 41.6419 -87.5931 North 177 204 2,700 -585 Descending Chicago Center
Mon 09:25:33 PM 41.6842 -87.6194 335° Northwest 173 199 2,500 -121 Descending Chicago Center
Mon 09:26:11 PM 41.7167 -87.6500 325° Northwest 166 191 2,500 -367 Level Chicago TRACON
Mon 09:27:11 PM 41.7333 -87.6833 304° West 127 146 1,900 -650 Descending Chicago TRACON
Mon 09:28:11 PM 41.7667 -87.7167 323° Northwest 120 138 1,200 -700 Descending Chicago TRACON
Mon 09:30:00 PM 41.7833 -87.7500 51° Northeast  Level FlightAware Approximate

Login

Don't have an account? Register now (free) for customized features, flight alerts, and more!